sensor_id;sensor_type;location;lat;lon;timestamp;temperature;humidity
14049;DHT22;7099;53.922;10.728;2023-02-02T00:02:58;6.30;69.20
14049;DHT22;7099;53.922;10.728;2023-02-02T00:07:03;6.40;69.30
14049;DHT22;7099;53.922;10.728;2023-02-02T00:11:10;6.40;69.20
14049;DHT22;7099;53.922;10.728;2023-02-02T00:15:16;6.40;69.20
14049;DHT22;7099;53.922;10.728;2023-02-02T00:19:24;6.40;69.20
14049;DHT22;7099;53.922;10.728;2023-02-02T00:23:31;6.40;69.00
14049;DHT22;7099;53.922;10.728;2023-02-02T00:27:36;6.30;68.90
14049;DHT22;7099;53.922;10.728;2023-02-02T00:31:42;6.40;68.60
14049;DHT22;7099;53.922;10.728;2023-02-02T00:35:48;6.40;68.50
14049;DHT22;7099;53.922;10.728;2023-02-02T00:39:56;6.40;68.40
14049;DHT22;7099;53.922;10.728;2023-02-02T00:44:02;6.30;68.20
14049;DHT22;7099;53.922;10.728;2023-02-02T00:48:26;6.30;68.10
14049;DHT22;7099;53.922;10.728;2023-02-02T00:52:32;6.20;68.10
14049;DHT22;7099;53.922;10.728;2023-02-02T00:56:40;6.30;68.40
14049;DHT22;7099;53.922;10.728;2023-02-02T01:00:46;6.20;68.40
14049;DHT22;7099;53.922;10.728;2023-02-02T01:04:51;6.20;68.60
14049;DHT22;7099;53.922;10.728;2023-02-02T01:08:57;6.30;68.50
14049;DHT22;7099;53.922;10.728;2023-02-02T01:13:03;6.30;68.40
14049;DHT22;7099;53.922;10.728;2023-02-02T01:17:08;6.30;68.60
14049;DHT22;7099;53.922;10.728;2023-02-02T01:21:14;6.30;67.60
14049;DHT22;7099;53.922;10.728;2023-02-02T01:25:20;6.30;67.30
14049;DHT22;7099;53.922;10.728;2023-02-02T01:29:25;6.20;66.90
14049;DHT22;7099;53.922;10.728;2023-02-02T01:33:31;6.30;66.90
14049;DHT22;7099;53.922;10.728;2023-02-02T01:37:37;6.20;66.70
14049;DHT22;7099;53.922;10.728;2023-02-02T01:41:43;6.20;66.60
14049;DHT22;7099;53.922;10.728;2023-02-02T01:45:50;6.10;66.50
14049;DHT22;7099;53.922;10.728;2023-02-02T01:49:56;6.00;66.50
14049;DHT22;7099;53.922;10.728;2023-02-02T01:54:05;6.00;66.60
14049;DHT22;7099;53.922;10.728;2023-02-02T01:58:20;6.00;66.50
14049;DHT22;7099;53.922;10.728;2023-02-02T02:02:29;5.90;66.50
14049;DHT22;7099;53.922;10.728;2023-02-02T02:06:35;5.80;66.50
14049;DHT22;7099;53.922;10.728;2023-02-02T02:10:41;5.80;66.90
14049;DHT22;7099;53.922;10.728;2023-02-02T02:14:48;5.80;67.20
14049;DHT22;7099;53.922;10.728;2023-02-02T02:38:10;5.50;69.20
14049;DHT22;7099;53.922;10.728;2023-02-02T02:42:29;5.50;69.60
14049;DHT22;7099;53.922;10.728;2023-02-02T02:46:36;5.50;69.80
14049;DHT22;7099;53.922;10.728;2023-02-02T02:50:42;5.50;70.00
14049;DHT22;7099;53.922;10.728;2023-02-02T02:54:53;5.50;70.00
14049;DHT22;7099;53.922;10.728;2023-02-02T03:03:46;5.50;69.80
14049;DHT22;7099;53.922;10.728;2023-02-02T03:08:46;5.40;70.00
14049;DHT22;7099;53.922;10.728;2023-02-02T03:12:55;5.50;70.30
14049;DHT22;7099;53.922;10.728;2023-02-02T03:17:01;5.40;70.30
14049;DHT22;7099;53.922;10.728;2023-02-02T03:21:07;5.30;70.80
14049;DHT22;7099;53.922;10.728;2023-02-02T03:25:13;5.30;70.30
14049;DHT22;7099;53.922;10.728;2023-02-02T03:29:20;5.30;70.30
14049;DHT22;7099;53.922;10.728;2023-02-02T03:33:26;5.30;70.30
14049;DHT22;7099;53.922;10.728;2023-02-02T03:37:31;5.30;70.10
14049;DHT22;7099;53.922;10.728;2023-02-02T03:41:37;5.30;69.90
14049;DHT22;7099;53.922;10.728;2023-02-02T03:45:42;5.30;69.80
14049;DHT22;7099;53.922;10.728;2023-02-02T03:49:48;5.30;70.40
14049;DHT22;7099;53.922;10.728;2023-02-02T03:53:53;5.30;69.80
14049;DHT22;7099;53.922;10.728;2023-02-02T03:57:59;5.20;69.80
14049;DHT22;7099;53.922;10.728;2023-02-02T04:02:05;5.20;69.70
14049;DHT22;7099;53.922;10.728;2023-02-02T04:06:11;5.20;69.70
14049;DHT22;7099;53.922;10.728;2023-02-02T04:10:17;5.20;69.80
14049;DHT22;7099;53.922;10.728;2023-02-02T04:14:22;5.20;69.80
14049;DHT22;7099;53.922;10.728;2023-02-02T04:18:28;5.20;70.00
14049;DHT22;7099;53.922;10.728;2023-02-02T04:22:34;5.20;70.30
14049;DHT22;7099;53.922;10.728;2023-02-02T04:26:40;5.20;70.80
14049;DHT22;7099;53.922;10.728;2023-02-02T04:30:46;5.10;71.30
14049;DHT22;7099;53.922;10.728;2023-02-02T04:34:51;5.10;71.60
14049;DHT22;7099;53.922;10.728;2023-02-02T04:38:57;5.10;71.90
14049;DHT22;7099;53.922;10.728;2023-02-02T04:43:02;5.10;72.20
14049;DHT22;7099;53.922;10.728;2023-02-02T04:47:08;5.20;72.20
14049;DHT22;7099;53.922;10.728;2023-02-02T04:51:14;5.20;72.40
14049;DHT22;7099;53.922;10.728;2023-02-02T04:55:19;5.20;72.40
14049;DHT22;7099;53.922;10.728;2023-02-02T04:59:27;5.20;73.00
14049;DHT22;7099;53.922;10.728;2023-02-02T05:03:34;5.20;72.20
14049;DHT22;7099;53.922;10.728;2023-02-02T05:07:39;5.20;72.40
14049;DHT22;7099;53.922;10.728;2023-02-02T05:11:45;5.20;72.40
14049;DHT22;7099;53.922;10.728;2023-02-02T05:15:52;5.20;73.10
14049;DHT22;7099;53.922;10.728;2023-02-02T05:19:58;5.30;73.40
14049;DHT22;7099;53.922;10.728;2023-02-02T05:24:03;5.20;74.00
14049;DHT22;7099;53.922;10.728;2023-02-02T05:28:09;5.20;73.40
14049;DHT22;7099;53.922;10.728;2023-02-02T05:32:16;5.20;73.80
14049;DHT22;7099;53.922;10.728;2023-02-02T05:36:21;5.20;73.00
14049;DHT22;7099;53.922;10.728;2023-02-02T05:40:26;5.20;73.00
14049;DHT22;7099;53.922;10.728;2023-02-02T05:44:32;5.10;73.00
14049;DHT22;7099;53.922;10.728;2023-02-02T05:48:38;5.10;73.00
14049;DHT22;7099;53.922;10.728;2023-02-02T05:52:44;5.10;72.80
14049;DHT22;7099;53.922;10.728;2023-02-02T05:56:52;5.10;72.50
14049;DHT22;7099;53.922;10.728;2023-02-02T06:01:00;5.10;71.90
14049;DHT22;7099;53.922;10.728;2023-02-02T06:05:06;5.10;71.70
14049;DHT22;7099;53.922;10.728;2023-02-02T06:09:12;5.30;70.40
14049;DHT22;7099;53.922;10.728;2023-02-02T06:13:18;5.20;70.40
14049;DHT22;7099;53.922;10.728;2023-02-02T06:17:23;5.10;70.60
14049;DHT22;7099;53.922;10.728;2023-02-02T06:21:29;5.10;70.70
14049;DHT22;7099;53.922;10.728;2023-02-02T06:25:35;5.10;71.60
14049;DHT22;7099;53.922;10.728;2023-02-02T06:29:41;5.00;71.20
14049;DHT22;7099;53.922;10.728;2023-02-02T06:33:51;5.00;71.80
14049;DHT22;7099;53.922;10.728;2023-02-02T06:38:00;5.00;72.10
14049;DHT22;7099;53.922;10.728;2023-02-02T06:42:06;5.00;72.70
14049;DHT22;7099;53.922;10.728;2023-02-02T06:46:25;5.10;73.40
14049;DHT22;7099;53.922;10.728;2023-02-02T06:50:30;5.10;73.40
14049;DHT22;7099;53.922;10.728;2023-02-02T06:54:36;5.10;73.40
14049;DHT22;7099;53.922;10.728;2023-02-02T06:58:42;5.10;73.60
14049;DHT22;7099;53.922;10.728;2023-02-02T07:02:47;5.10;74.40
14049;DHT22;7099;53.922;10.728;2023-02-02T07:06:53;5.10;73.70
14049;DHT22;7099;53.922;10.728;2023-02-02T07:10:59;5.10;73.80
14049;DHT22;7099;53.922;10.728;2023-02-02T07:15:20;5.10;73.80
14049;DHT22;7099;53.922;10.728;2023-02-02T07:19:26;5.20;73.70
14049;DHT22;7099;53.922;10.728;2023-02-02T07:23:32;5.10;73.70
14049;DHT22;7099;53.922;10.728;2023-02-02T07:27:38;5.10;73.60
14049;DHT22;7099;53.922;10.728;2023-02-02T07:31:43;5.10;73.40
14049;DHT22;7099;53.922;10.728;2023-02-02T07:35:49;5.20;73.30
14049;DHT22;7099;53.922;10.728;2023-02-02T07:39:55;5.20;73.10
14049;DHT22;7099;53.922;10.728;2023-02-02T07:44:03;5.20;72.90
14049;DHT22;7099;53.922;10.728;2023-02-02T07:48:08;5.20;72.80
14049;DHT22;7099;53.922;10.728;2023-02-02T07:52:14;5.20;72.60
14049;DHT22;7099;53.922;10.728;2023-02-02T07:56:22;5.20;72.40
14049;DHT22;7099;53.922;10.728;2023-02-02T08:00:29;5.30;72.40
14049;DHT22;7099;53.922;10.728;2023-02-02T08:04:36;5.30;72.30
14049;DHT22;7099;53.922;10.728;2023-02-02T08:08:41;5.30;72.30
14049;DHT22;7099;53.922;10.728;2023-02-02T08:12:47;5.30;72.40
14049;DHT22;7099;53.922;10.728;2023-02-02T08:16:55;5.30;72.40
14049;DHT22;7099;53.922;10.728;2023-02-02T08:21:02;5.30;72.40
14049;DHT22;7099;53.922;10.728;2023-02-02T08:25:09;5.30;72.50
14049;DHT22;7099;53.922;10.728;2023-02-02T08:29:14;5.40;72.60
14049;DHT22;7099;53.922;10.728;2023-02-02T08:33:21;5.40;72.60
14049;DHT22;7099;53.922;10.728;2023-02-02T08:37:27;5.30;72.50
14049;DHT22;7099;53.922;10.728;2023-02-02T08:41:33;5.40;72.30
14049;DHT22;7099;53.922;10.728;2023-02-02T08:45:41;5.40;73.00
14049;DHT22;7099;53.922;10.728;2023-02-02T08:50:08;5.40;72.30
14049;DHT22;7099;53.922;10.728;2023-02-02T08:54:14;5.40;72.00
14049;DHT22;7099;53.922;10.728;2023-02-02T08:58:20;5.40;72.00
14049;DHT22;7099;53.922;10.728;2023-02-02T09:02:26;5.50;71.90
14049;DHT22;7099;53.922;10.728;2023-02-02T09:06:36;5.50;71.70
14049;DHT22;7099;53.922;10.728;2023-02-02T09:10:42;5.60;71.30
14049;DHT22;7099;53.922;10.728;2023-02-02T09:14:48;5.60;71.10
14049;DHT22;7099;53.922;10.728;2023-02-02T09:18:55;5.70;70.80
14049;DHT22;7099;53.922;10.728;2023-02-02T09:23:00;5.80;70.80
14049;DHT22;7099;53.922;10.728;2023-02-02T09:27:06;5.80;70.30
14049;DHT22;7099;53.922;10.728;2023-02-02T09:31:12;5.90;69.80
14049;DHT22;7099;53.922;10.728;2023-02-02T09:35:18;6.10;69.00
14049;DHT22;7099;53.922;10.728;2023-02-02T09:39:24;6.10;68.80
14049;DHT22;7099;53.922;10.728;2023-02-02T09:43:52;6.10;68.60
14049;DHT22;7099;53.922;10.728;2023-02-02T09:48:37;6.30;67.20
14049;DHT22;7099;53.922;10.728;2023-02-02T09:53:03;6.30;67.30
14049;DHT22;7099;53.922;10.728;2023-02-02T09:57:19;6.30;67.20
14049;DHT22;7099;53.922;10.728;2023-02-02T10:01:33;6.30;67.20
14049;DHT22;7099;53.922;10.728;2023-02-02T10:05:53;6.40;67.00
14049;DHT22;7099;53.922;10.728;2023-02-02T10:10:15;6.40;66.80
14049;DHT22;7099;53.922;10.728;2023-02-02T10:14:40;6.40;66.70
14049;DHT22;7099;53.922;10.728;2023-02-02T10:18:54;6.50;67.30
14049;DHT22;7099;53.922;10.728;2023-02-02T10:28:05;6.60;65.00
14049;DHT22;7099;53.922;10.728;2023-02-02T10:32:25;6.60;64.80
14049;DHT22;7099;53.922;10.728;2023-02-02T10:36:43;6.60;64.60
14049;DHT22;7099;53.922;10.728;2023-02-02T10:41:08;6.80;65.00
14049;DHT22;7099;53.922;10.728;2023-02-02T10:45:38;6.90;62.40
14049;DHT22;7099;53.922;10.728;2023-02-02T10:49:46;6.80;63.20
14049;DHT22;7099;53.922;10.728;2023-02-02T10:54:02;6.90;63.00
14049;DHT22;7099;53.922;10.728;2023-02-02T11:02:34;6.90;62.60
14049;DHT22;7099;53.922;10.728;2023-02-02T11:06:40;6.90;61.60
14049;DHT22;7099;53.922;10.728;2023-02-02T11:10:57;7.00;61.20
14049;DHT22;7099;53.922;10.728;2023-02-02T11:15:26;7.00;59.90
14049;DHT22;7099;53.922;10.728;2023-02-02T11:19:33;7.00;60.50
14049;DHT22;7099;53.922;10.728;2023-02-02T11:23:39;7.10;60.40
14049;DHT22;7099;53.922;10.728;2023-02-02T11:27:45;7.20;60.80
14049;DHT22;7099;53.922;10.728;2023-02-02T11:31:51;7.10;59.90
14049;DHT22;7099;53.922;10.728;2023-02-02T11:35:59;7.20;60.80
14049;DHT22;7099;53.922;10.728;2023-02-02T11:44:33;7.30;57.60
14049;DHT22;7099;53.922;10.728;2023-02-02T11:48:57;7.30;58.40
14049;DHT22;7099;53.922;10.728;2023-02-02T11:53:04;7.30;58.70
14049;DHT22;7099;53.922;10.728;2023-02-02T11:57:19;7.40;59.10
14049;DHT22;7099;53.922;10.728;2023-02-02T12:01:29;7.40;58.30
14049;DHT22;7099;53.922;10.728;2023-02-02T12:05:36;7.30;57.90
14049;DHT22;7099;53.922;10.728;2023-02-02T12:09:42;7.40;58.40
14049;DHT22;7099;53.922;10.728;2023-02-02T12:27:51;7.60;56.00
14049;DHT22;7099;53.922;10.728;2023-02-02T12:32:53;7.50;55.80
14049;DHT22;7099;53.922;10.728;2023-02-02T12:37:46;7.50;55.80
14049;DHT22;7099;53.922;10.728;2023-02-02T12:42:27;7.50;56.50
14049;DHT22;7099;53.922;10.728;2023-02-02T12:56:07;7.80;57.50
14049;DHT22;7099;53.922;10.728;2023-02-02T13:00:49;7.80;56.60
14049;DHT22;7099;53.922;10.728;2023-02-02T13:05:15;7.90;55.70
14049;DHT22;7099;53.922;10.728;2023-02-02T13:09:30;7.80;56.20
14049;DHT22;7099;53.922;10.728;2023-02-02T13:13:52;7.80;56.20
14049;DHT22;7099;53.922;10.728;2023-02-02T13:18:02;7.90;56.50
14049;DHT22;7099;53.922;10.728;2023-02-02T13:22:27;7.90;55.70
14049;DHT22;7099;53.922;10.728;2023-02-02T13:26:40;7.90;55.60
14049;DHT22;7099;53.922;10.728;2023-02-02T13:30:48;8.00;56.10
14049;DHT22;7099;53.922;10.728;2023-02-02T13:35:01;8.10;55.70
14049;DHT22;7099;53.922;10.728;2023-02-02T13:39:18;8.10;55.80
14049;DHT22;7099;53.922;10.728;2023-02-02T13:48:18;8.10;55.50
14049;DHT22;7099;53.922;10.728;2023-02-02T13:52:48;8.10;55.20
14049;DHT22;7099;53.922;10.728;2023-02-02T13:58:12;8.20;56.30
14049;DHT22;7099;53.922;10.728;2023-02-02T14:02:01;8.20;54.30
14049;DHT22;7099;53.922;10.728;2023-02-02T14:06:16;8.30;56.40
14049;DHT22;7099;53.922;10.728;2023-02-02T14:10:29;8.30;55.90
14049;DHT22;7099;53.922;10.728;2023-02-02T14:14:37;8.40;55.80
14049;DHT22;7099;53.922;10.728;2023-02-02T14:22:58;8.40;56.20
14049;DHT22;7099;53.922;10.728;2023-02-02T14:39:30;8.60;55.70
14049;DHT22;7099;53.922;10.728;2023-02-02T14:43:44;8.50;56.00
14049;DHT22;7099;53.922;10.728;2023-02-02T14:47:56;8.50;55.60
14049;DHT22;7099;53.922;10.728;2023-02-02T14:52:19;8.50;55.80
14049;DHT22;7099;53.922;10.728;2023-02-02T14:56:42;8.40;55.90
14049;DHT22;7099;53.922;10.728;2023-02-02T15:01:21;8.40;55.40
14049;DHT22;7099;53.922;10.728;2023-02-02T15:09:37;8.30;56.40
14049;DHT22;7099;53.922;10.728;2023-02-02T15:13:44;8.30;56.70
14049;DHT22;7099;53.922;10.728;2023-02-02T15:18:05;8.20;56.70
14049;DHT22;7099;53.922;10.728;2023-02-02T15:22:47;8.10;56.60
14049;DHT22;7099;53.922;10.728;2023-02-02T15:27:17;8.10;56.60
14049;DHT22;7099;53.922;10.728;2023-02-02T15:31:42;8.00;57.40
14049;DHT22;7099;53.922;10.728;2023-02-02T15:35:49;8.00;57.80
14049;DHT22;7099;53.922;10.728;2023-02-02T15:39:59;7.90;57.80
14049;DHT22;7099;53.922;10.728;2023-02-02T15:44:19;7.80;57.60
14049;DHT22;7099;53.922;10.728;2023-02-02T15:48:32;7.70;58.00
14049;DHT22;7099;53.922;10.728;2023-02-02T15:52:46;7.60;58.50
14049;DHT22;7099;53.922;10.728;2023-02-02T15:56:55;7.50;58.60
14049;DHT22;7099;53.922;10.728;2023-02-02T16:01:14;7.40;58.70
14049;DHT22;7099;53.922;10.728;2023-02-02T16:05:52;7.40;58.80
14049;DHT22;7099;53.922;10.728;2023-02-02T16:10:06;7.30;58.70
14049;DHT22;7099;53.922;10.728;2023-02-02T16:14:14;7.10;59.20
14049;DHT22;7099;53.922;10.728;2023-02-02T16:18:22;7.00;59.30
14049;DHT22;7099;53.922;10.728;2023-02-02T16:22:27;6.90;59.60
14049;DHT22;7099;53.922;10.728;2023-02-02T16:26:35;6.80;59.70
14049;DHT22;7099;53.922;10.728;2023-02-02T16:30:41;6.70;59.80
14049;DHT22;7099;53.922;10.728;2023-02-02T16:34:47;6.60;59.90
14049;DHT22;7099;53.922;10.728;2023-02-02T16:38:55;6.40;60.00
14049;DHT22;7099;53.922;10.728;2023-02-02T16:43:49;6.30;60.30
14049;DHT22;7099;53.922;10.728;2023-02-02T16:47:34;6.20;60.50
14049;DHT22;7099;53.922;10.728;2023-02-02T16:51:42;6.10;60.60
14049;DHT22;7099;53.922;10.728;2023-02-02T16:55:48;6.00;60.80
14049;DHT22;7099;53.922;10.728;2023-02-02T16:59:58;6.00;61.20
14049;DHT22;7099;53.922;10.728;2023-02-02T17:04:23;5.90;61.40
14049;DHT22;7099;53.922;10.728;2023-02-02T17:08:37;5.70;61.40
14049;DHT22;7099;53.922;10.728;2023-02-02T17:12:44;5.70;61.80
14049;DHT22;7099;53.922;10.728;2023-02-02T17:16:50;5.60;61.80
14049;DHT22;7099;53.922;10.728;2023-02-02T17:20:57;5.40;62.10
14049;DHT22;7099;53.922;10.728;2023-02-02T17:25:39;5.30;62.20
14049;DHT22;7099;53.922;10.728;2023-02-02T17:29:46;5.20;62.60
14049;DHT22;7099;53.922;10.728;2023-02-02T17:33:52;5.20;62.50
14049;DHT22;7099;53.922;10.728;2023-02-02T17:37:57;5.00;62.70
14049;DHT22;7099;53.922;10.728;2023-02-02T17:42:04;4.90;63.50
14049;DHT22;7099;53.922;10.728;2023-02-02T17:46:11;5.00;62.40
14049;DHT22;7099;53.922;10.728;2023-02-02T17:50:17;4.90;62.80
14049;DHT22;7099;53.922;10.728;2023-02-02T17:54:23;4.80;63.00
14049;DHT22;7099;53.922;10.728;2023-02-02T17:58:29;4.60;63.40
14049;DHT22;7099;53.922;10.728;2023-02-02T18:02:35;4.60;63.70
14049;DHT22;7099;53.922;10.728;2023-02-02T18:06:40;4.50;63.70
14049;DHT22;7099;53.922;10.728;2023-02-02T18:10:46;4.50;63.70
14049;DHT22;7099;53.922;10.728;2023-02-02T18:14:51;4.40;63.70
14049;DHT22;7099;53.922;10.728;2023-02-02T18:18:57;4.30;64.00
14049;DHT22;7099;53.922;10.728;2023-02-02T18:23:02;4.20;64.20
14049;DHT22;7099;53.922;10.728;2023-02-02T18:27:08;4.20;64.80
14049;DHT22;7099;53.922;10.728;2023-02-02T18:31:16;4.10;64.70
14049;DHT22;7099;53.922;10.728;2023-02-02T18:35:24;4.10;64.80
14049;DHT22;7099;53.922;10.728;2023-02-02T18:39:31;4.00;64.90
14049;DHT22;7099;53.922;10.728;2023-02-02T18:43:36;4.00;65.30
14049;DHT22;7099;53.922;10.728;2023-02-02T18:47:42;3.90;65.50
14049;DHT22;7099;53.922;10.728;2023-02-02T18:51:49;3.90;65.60
14049;DHT22;7099;53.922;10.728;2023-02-02T18:55:55;3.90;65.80
14049;DHT22;7099;53.922;10.728;2023-02-02T19:00:00;3.90;65.80
14049;DHT22;7099;53.922;10.728;2023-02-02T19:04:06;3.90;66.00
14049;DHT22;7099;53.922;10.728;2023-02-02T19:08:13;3.90;66.00
14049;DHT22;7099;53.922;10.728;2023-02-02T19:12:18;3.80;66.00
14049;DHT22;7099;53.922;10.728;2023-02-02T19:16:28;3.80;66.20
14049;DHT22;7099;53.922;10.728;2023-02-02T19:20:36;3.80;66.50
14049;DHT22;7099;53.922;10.728;2023-02-02T19:24:42;3.70;66.50
14049;DHT22;7099;53.922;10.728;2023-02-02T19:28:48;3.70;66.70
14049;DHT22;7099;53.922;10.728;2023-02-02T19:32:54;3.70;66.80
14049;DHT22;7099;53.922;10.728;2023-02-02T19:37:19;3.70;66.90
14049;DHT22;7099;53.922;10.728;2023-02-02T19:41:28;3.70;67.40
14049;DHT22;7099;53.922;10.728;2023-02-02T19:45:34;3.70;67.80
14049;DHT22;7099;53.922;10.728;2023-02-02T19:49:40;3.70;67.20
14049;DHT22;7099;53.922;10.728;2023-02-02T19:53:45;3.70;67.40
14049;DHT22;7099;53.922;10.728;2023-02-02T19:58:21;3.70;67.40
14049;DHT22;7099;53.922;10.728;2023-02-02T20:02:56;3.70;67.80
14049;DHT22;7099;53.922;10.728;2023-02-02T20:07:11;3.70;68.40
14049;DHT22;7099;53.922;10.728;2023-02-02T20:11:35;3.70;68.00
14049;DHT22;7099;53.922;10.728;2023-02-02T20:15:43;3.70;68.20
14049;DHT22;7099;53.922;10.728;2023-02-02T20:19:49;3.70;67.90
14049;DHT22;7099;53.922;10.728;2023-02-02T20:23:55;3.80;68.20
14049;DHT22;7099;53.922;10.728;2023-02-02T20:28:07;3.80;68.30
14049;DHT22;7099;53.922;10.728;2023-02-02T20:32:39;3.80;69.30
14049;DHT22;7099;53.922;10.728;2023-02-02T20:36:46;3.80;68.80
14049;DHT22;7099;53.922;10.728;2023-02-02T20:40:51;3.80;69.00
14049;DHT22;7099;53.922;10.728;2023-02-02T20:44:57;3.90;69.00
14049;DHT22;7099;53.922;10.728;2023-02-02T20:49:02;3.90;69.30
14049;DHT22;7099;53.922;10.728;2023-02-02T20:53:09;3.90;69.30
14049;DHT22;7099;53.922;10.728;2023-02-02T20:57:16;3.90;69.40
14049;DHT22;7099;53.922;10.728;2023-02-02T21:01:21;4.00;69.60
14049;DHT22;7099;53.922;10.728;2023-02-02T21:05:29;4.00;69.80
14049;DHT22;7099;53.922;10.728;2023-02-02T21:09:34;4.00;70.10
14049;DHT22;7099;53.922;10.728;2023-02-02T21:13:40;4.10;70.40
14049;DHT22;7099;53.922;10.728;2023-02-02T21:17:45;4.00;70.50
14049;DHT22;7099;53.922;10.728;2023-02-02T21:21:51;4.10;70.70
14049;DHT22;7099;53.922;10.728;2023-02-02T21:25:56;4.20;71.00
14049;DHT22;7099;53.922;10.728;2023-02-02T21:30:03;4.20;71.20
14049;DHT22;7099;53.922;10.728;2023-02-02T21:34:09;4.20;71.50
14049;DHT22;7099;53.922;10.728;2023-02-02T21:38:15;4.20;72.20
14049;DHT22;7099;53.922;10.728;2023-02-02T21:42:21;4.30;71.60
14049;DHT22;7099;53.922;10.728;2023-02-02T21:46:35;4.30;71.90
14049;DHT22;7099;53.922;10.728;2023-02-02T21:50:42;4.30;72.80
14049;DHT22;7099;53.922;10.728;2023-02-02T21:54:47;4.40;72.40
14049;DHT22;7099;53.922;10.728;2023-02-02T21:58:57;4.40;72.80
14049;DHT22;7099;53.922;10.728;2023-02-02T22:03:23;4.40;73.30
14049;DHT22;7099;53.922;10.728;2023-02-02T22:07:31;4.50;74.70
14049;DHT22;7099;53.922;10.728;2023-02-02T22:12:13;4.60;73.80
14049;DHT22;7099;53.922;10.728;2023-02-02T22:16:27;4.50;76.20
14049;DHT22;7099;53.922;10.728;2023-02-02T22:20:33;4.50;74.40
14049;DHT22;7099;53.922;10.728;2023-02-02T22:24:45;4.60;74.50
14049;DHT22;7099;53.922;10.728;2023-02-02T22:28:54;4.60;74.40
14049;DHT22;7099;53.922;10.728;2023-02-02T22:33:00;4.60;74.40
14049;DHT22;7099;53.922;10.728;2023-02-02T22:37:06;4.60;74.70
14049;DHT22;7099;53.922;10.728;2023-02-02T22:41:11;4.60;75.40
14049;DHT22;7099;53.922;10.728;2023-02-02T22:45:17;4.60;75.30
14049;DHT22;7099;53.922;10.728;2023-02-02T22:49:23;4.60;75.70
14049;DHT22;7099;53.922;10.728;2023-02-02T22:53:29;4.60;75.20
14049;DHT22;7099;53.922;10.728;2023-02-02T22:57:37;4.60;75.20
14049;DHT22;7099;53.922;10.728;2023-02-02T23:01:42;4.60;75.40
14049;DHT22;7099;53.922;10.728;2023-02-02T23:05:48;4.60;75.50
14049;DHT22;7099;53.922;10.728;2023-02-02T23:09:53;4.60;75.50
14049;DHT22;7099;53.922;10.728;2023-02-02T23:13:59;4.60;75.20
14049;DHT22;7099;53.922;10.728;2023-02-02T23:18:04;4.60;75.20
14049;DHT22;7099;53.922;10.728;2023-02-02T23:22:10;4.60;75.50
14049;DHT22;7099;53.922;10.728;2023-02-02T23:26:15;4.60;75.60
14049;DHT22;7099;53.922;10.728;2023-02-02T23:30:21;4.60;75.60
14049;DHT22;7099;53.922;10.728;2023-02-02T23:34:28;4.60;75.60
14049;DHT22;7099;53.922;10.728;2023-02-02T23:38:34;4.60;75.80
14049;DHT22;7099;53.922;10.728;2023-02-02T23:42:39;4.50;76.00
14049;DHT22;7099;53.922;10.728;2023-02-02T23:46:45;4.60;76.40
14049;DHT22;7099;53.922;10.728;2023-02-02T23:50:51;4.60;75.90
14049;DHT22;7099;53.922;10.728;2023-02-02T23:54:59;4.50;75.80
14049;DHT22;7099;53.922;10.728;2023-02-02T23:59:05;4.50;75.90
